Agana Heights, GU

8:15 PM ChST on July 10, 2014 (GMT +1000)
Maite (KGUMAITE2) Elev 140 ft | 13.48 °N, 144.76 °E | Change Station

Current weather conditions updated 2 seconds ago

Partly Cloudy
Partly Cloudy
83.8 °F
Feels Like 95 °F
N
3.0
Wind Variable Wind from ESE
Gusts 7.0 mph

Tomorrow is forecast to be Cooler than today. Thunderstorms early.

Today
High -- | Low -- °F
--% Chance of Precip.
Yesterday
High -- | Low -- °F
Precip. -- in
6:00 AM 6:52 PM
Waxing Gibbous, 94% visible
Pressure 29.81 in
Visibility 10.0 miles
Clouds Few 2000 ft
Heat Index 95 °F
Dew Point 78 °F
Humidity 83%
Rainfall 0.00 in
Snow Depth Not available.
UV 0.0 out of 12
Pollen Not available.
Air Quality Not available.
Flu Activity Regional
METAR PGUM 100954Z 08006KT 10SM FEW020 29/25 A2984 RMK AO2 SLP095 T02890250

More Conditions Fewer Conditions

Pressure 29.81 in
Visibility 10.0 miles
Clouds Few 2000 ft
Heat Index 95 °F
Dew Point 78 °F
Humidity 83%
Rainfall 0.00 in
Snow Depth Not available.
UV 0.0 out of 12
Pollen Not available.
Air Quality Not available.
Flu Activity Regional
METAR PGUM 100954Z 08006KT 10SM FEW020 29/25 A2984 RMK AO2 SLP095 T02890250

More Conditions Fewer Conditions

10-Day Weather Forecast

Almanac

Astronomy

Jul. 10, 2014 Rise Set
Actual Time 6:00 AM ChST 6:52 PM ChST
Civil Twilight 5:36 AM ChST 7:15 PM ChST
Nautical Twilight 5:09 AM ChST 7:43 PM ChST
Astronomical Twilight 4:41 AM ChST 8:11 PM ChST
Moon 4:34 PM ChST 3:25 AM ChST
Length of Visible Light 13h 39m
Length of Day
12h 52m
Tomorrow will be 0m 19s shorter.
Waxing Gibbous, 94% of the Moon is Illuminated
Today
Waxing Gibbous
Jul 12
Full
Jul 18
Last Quarter
Jul 26
New
Aug 3
First Quarter

Community

WunderPhotos

Upload Photos

1,732,088 photos uploaded!

Nearby

Snow Depth

Station Depth Elevation
No new snow has been reported.

Earthquake Activity

City Distance Mag. Time & Date
No recent earthquake activity has been reported nearby.
Minimum magnitude displayed is 2.5.

Coastal Water Temperatures

Place Temperature
No Stations Reporting

Nearby Weather Stations

Station Location Temp. Heat Index Dew Point Humidity Wind Precip. Elev Updated Type
Maite, Maite, GU 83.8 °F 95 °F 78 °F 83% ESE  at  3.0 mph 0.00 in / hr 140 ft 8:15 PM ChST Rapid Fire
Ordot Dump, Chalan Pago Ordot 80.4 °F 87 °F 77 °F 90% ENE  at  0.0 mph 0.00 in / hr 282 ft 8:15 PM ChST Rapid Fire
Perezville, Tamuning, Guam 84.5 °F 95 °F 78 °F 80% NE  at  5.0 mph 0.00 in / hr 120 ft 8:15 PM ChST Normal
NOS_NWLON Pago Bay, Guam , Mangilao, GU - - - - NE  at  3 mph 0.00 in / hr 0 ft 7:48 PM ChST MADIS
Mangilao, Mangilao, GU 80.7 °F 85 °F 73 °F 77% NE  at  0.0 mph 0.00 in / hr 361 ft 8:15 PM ChST Rapid Fire
Jeffs Pirates Cove, Guam, Ipan Talofofo, GU 84.9 °F 97 °F 79 °F 82% ENE  at  9.0 mph 0.00 in / hr 27 ft 8:14 PM ChST Rapid Fire
Ypaopao Estates, Dededo 82.4 °F 91 °F 77 °F 84% ESE  at  2.0 mph 0.00 in / hr 420 ft 8:11 PM ChST Rapid Fire

Show More Stations Show Fewer Stations